Time;durP1;ratioP1;P1;durP2;ratioP2;P2;SDS_P1;SDS_P2;PMS_P1;PMS_P2;Temp;Humidity;BMP_temperature;BMP_pressure;BME280_temperature;BME280_humidity;BME280_pressure;Samples;Min_cycle;Max_cycle;Signal;HPM_P1;HPM_P2
2022/01/06 00:01:52;;;;;;;22.33;2.90;;;4.20;99.90;;;;;;4947941;28;20113;-86
2022/01/06 00:04:18;;;;;;;15.55;2.47;;;4.20;99.90;;;;;;4947640;28;20062;-86
2022/01/06 00:06:43;;;;;;;16.03;2.40;;;4.30;99.90;;;;;;4948653;28;20050;-86
2022/01/06 00:09:13;;;;;;;24.47;3.17;;;4.30;99.90;;;;;;4948801;28;20046;-85
2022/01/06 00:11:39;;;;;;;20.42;3.17;;;4.40;99.90;;;;;;4966650;28;20103;-86
2022/01/06 00:14:16;;;;;;;17.57;2.60;;;4.40;99.90;;;;;;4947162;28;20125;-86
2022/01/06 00:17:01;;;;;;;14.02;2.63;;;4.40;99.90;;;;;;4947851;28;20038;-85
2022/01/06 00:24:55;;;;;;;18.02;3.20;;;4.50;99.90;;;;;;4963328;28;20047;-84
2022/01/06 00:27:20;;;;;;;14.57;2.17;;;4.40;99.90;;;;;;4961376;28;20053;-86
2022/01/06 00:29:46;;;;;;;17.50;2.37;;;4.40;99.90;;;;;;4944619;28;21858;-86
2022/01/06 00:32:12;;;;;;;16.97;2.03;;;4.40;99.90;;;;;;4946881;28;20424;-86
2022/01/06 00:34:37;;;;;;;11.53;2.50;;;4.40;99.90;;;;;;4947644;28;20035;-87
2022/01/06 00:37:03;;;;;;;18.03;2.20;;;4.30;99.90;;;;;;4968054;28;20034;-86
2022/01/06 00:39:29;;;;;;;13.47;2.17;;;4.20;99.90;;;;;;4948869;28;20113;-85
2022/01/06 00:41:58;;;;;;;19.60;2.83;;;4.20;99.90;;;;;;4949539;28;20047;-84
2022/01/06 00:44:24;;;;;;;22.33;3.53;;;4.20;99.90;;;;;;4968006;28;20321;-86
2022/01/06 00:46:51;;;;;;;14.70;1.73;;;4.10;99.90;;;;;;4948264;28;20069;-86
2022/01/06 00:49:23;;;;;;;12.93;2.58;;;4.10;99.90;;;;;;4945617;28;20039;-85
2022/01/06 00:51:48;;;;;;;12.18;1.75;;;4.10;99.90;;;;;;4945456;28;20044;-86
2022/01/06 00:54:14;;;;;;;18.53;3.10;;;4.10;99.90;;;;;;4963823;28;20035;-86
2022/01/06 00:56:40;;;;;;;13.55;1.92;;;4.00;99.90;;;;;;4945811;28;20038;-85
2022/01/06 00:59:06;;;;;;;17.67;3.13;;;4.00;99.90;;;;;;4946539;28;20412;-85
2022/01/06 01:01:32;;;;;;;20.50;2.30;;;4.00;99.90;;;;;;4946725;28;20120;-85
2022/01/06 01:03:58;;;;;;;15.60;2.47;;;4.00;99.90;;;;;;4945561;28;20644;-87
2022/01/06 01:06:24;;;;;;;14.47;2.47;;;3.90;99.90;;;;;;4949798;28;20050;-85
2022/01/06 01:08:49;;;;;;;10.73;2.37;;;3.90;99.90;;;;;;4963813;28;20301;-86
2022/01/06 01:11:15;;;;;;;15.77;3.03;;;4.00;99.90;;;;;;4945700;28;20394;-86
2022/01/06 01:13:55;;;;;;;13.27;1.63;;;3.90;99.90;;;;;;4961351;28;20043;-87
2022/01/06 01:16:30;;;;;;;18.33;2.58;;;3.90;99.90;;;;;;4944424;28;20405;-87
2022/01/06 01:18:57;;;;;;;19.73;2.10;;;3.90;99.90;;;;;;4942437;28;20043;-87
2022/01/06 01:21:27;;;;;;;10.63;2.00;;;3.90;99.90;;;;;;4945838;28;20045;-85
2022/01/06 01:23:58;;;;;;;8.20;1.80;;;3.90;99.90;;;;;;4943816;28;20605;-87
2022/01/06 01:26:25;;;;;;;21.20;1.98;;;3.90;99.90;;;;;;4960544;28;20045;-87
2022/01/06 01:28:53;;;;;;;13.45;1.88;;;3.90;99.90;;;;;;4946736;28;20039;-87
2022/01/06 01:33:51;;;;;;;14.05;1.70;;;3.90;99.90;;;;;;4958797;28;20047;-87
2022/01/06 01:36:17;;;;;;;13.98;2.05;;;3.90;99.90;;;;;;4949818;28;20561;-87
2022/01/06 01:38:43;;;;;;;12.17;1.93;;;4.00;99.90;;;;;;4960537;28;20118;-85
2022/01/06 01:41:11;;;;;;;8.35;1.67;;;4.00;99.90;;;;;;4963345;28;20286;-86
2022/01/06 01:43:38;;;;;;;12.63;1.77;;;3.90;99.90;;;;;;4962734;28;20405;-86
2022/01/06 01:46:11;;;;;;;12.43;2.05;;;3.90;99.90;;;;;;4964583;28;20042;-85
2022/01/06 01:48:41;;;;;;;18.00;2.95;;;3.90;99.90;;;;;;4947111;28;20038;-85
2022/01/06 01:51:08;;;;;;;12.57;2.25;;;3.90;99.90;;;;;;4963950;28;20134;-86
2022/01/06 01:53:37;;;;;;;19.80;2.10;;;3.80;99.90;;;;;;4946582;28;20050;-86
2022/01/06 01:56:11;;;;;;;9.60;1.65;;;3.80;99.90;;;;;;4948429;28;20043;-86
2022/01/06 01:58:38;;;;;;;14.18;2.90;;;3.80;99.90;;;;;;4950328;28;20073;-88
2022/01/06 02:01:04;;;;;;;8.93;2.60;;;3.70;99.90;;;;;;4951754;28;20050;-85
2022/01/06 02:03:30;;;;;;;12.60;2.00;;;3.80;99.90;;;;;;4972733;28;20543;-85
2022/01/06 02:05:56;;;;;;;18.75;2.05;;;3.70;99.90;;;;;;4967597;28;20039;-85
2022/01/06 02:08:21;;;;;;;11.33;2.00;;;3.80;99.90;;;;;;4956209;28;20070;-85
2022/01/06 02:10:47;;;;;;;15.60;2.20;;;3.70;99.90;;;;;;4949625;28;20117;-88
2022/01/06 02:13:14;;;;;;;11.60;1.80;;;3.70;99.90;;;;;;4951985;28;20593;-86
2022/01/06 02:15:43;;;;;;;12.50;1.70;;;3.70;99.90;;;;;;4948948;28;20260;-88
2022/01/06 02:18:09;;;;;;;17.02;2.30;;;3.70;99.90;;;;;;4966059;28;20053;-86
2022/01/06 02:20:34;;;;;;;12.60;1.97;;;3.70;99.90;;;;;;4965900;28;20413;-86
2022/01/06 02:23:00;;;;;;;18.33;2.40;;;3.80;99.90;;;;;;4948857;28;20637;-84
2022/01/06 02:25:31;;;;;;;9.57;1.43;;;3.70;99.90;;;;;;4966783;28;20457;-85
2022/01/06 02:28:03;;;;;;;12.32;1.50;;;3.70;99.90;;;;;;4948611;28;21120;-86
2022/01/06 02:30:32;;;;;;;18.15;3.72;;;3.70;99.90;;;;;;4949023;28;20047;-86
2022/01/06 02:33:00;;;;;;;6.95;1.73;;;3.60;99.90;;;;;;4964334;28;20082;-87
2022/01/06 02:35:26;;;;;;;14.13;2.13;;;3.60;99.90;;;;;;4965948;28;20034;-86
2022/01/06 02:37:52;;;;;;;9.25;2.20;;;3.60;99.90;;;;;;4948950;28;20568;-85
2022/01/06 02:40:21;;;;;;;14.27;2.17;;;3.50;99.90;;;;;;4948269;28;20128;-86
2022/01/06 02:42:52;;;;;;;14.20;2.65;;;3.50;99.90;;;;;;4950262;28;20555;-86
2022/01/06 02:45:19;;;;;;;16.02;1.90;;;3.50;99.90;;;;;;4951238;28;20038;-86
2022/01/06 02:47:46;;;;;;;13.38;2.05;;;3.50;99.90;;;;;;4984539;28;20043;-86
2022/01/06 02:50:12;;;;;;;13.00;1.70;;;3.50;99.90;;;;;;4952539;28;20493;-84
2022/01/06 02:52:38;;;;;;;11.88;2.05;;;3.50;99.90;;;;;;4953565;28;20113;-86
2022/01/06 02:55:06;;;;;;;8.00;1.85;;;3.40;99.90;;;;;;4956369;28;20046;-86
2022/01/06 02:57:37;;;;;;;6.85;1.55;;;3.40;99.90;;;;;;4969482;28;20327;-87
2022/01/06 03:00:08;;;;;;;6.40;1.15;;;3.40;99.90;;;;;;4987673;28;20106;-86
2022/01/06 03:02:34;;;;;;;13.70;2.92;;;3.30;99.90;;;;;;4960250;28;20042;-87
2022/01/06 03:05:00;;;;;;;14.80;1.83;;;3.30;99.90;;;;;;4974046;28;20049;-86
2022/01/06 03:07:26;;;;;;;10.90;2.00;;;3.30;99.90;;;;;;4954863;28;20125;-85
2022/01/06 03:09:54;;;;;;;16.10;2.00;;;3.20;99.90;;;;;;4966083;28;20062;-86
2022/01/06 03:15:15;;;;;;;19.15;2.60;;;3.20;99.90;;;;;;4958212;28;20039;-85
2022/01/06 03:17:43;;;;;;;9.02;1.65;;;3.10;99.90;;;;;;4950460;28;20050;-87
2022/01/06 03:20:12;;;;;;;20.58;1.90;;;3.20;99.90;;;;;;4954385;28;20035;-86
2022/01/06 03:22:38;;;;;;;18.85;2.13;;;3.10;99.90;;;;;;4960147;28;20058;-86
2022/01/06 03:25:05;;;;;;;9.60;1.77;;;3.10;99.90;;;;;;4955969;28;20042;-84
2022/01/06 03:27:31;;;;;;;12.32;1.90;;;3.10;99.90;;;;;;4957942;28;20066;-86
2022/01/06 03:29:57;;;;;;;9.60;1.35;;;3.10;99.90;;;;;;4956415;28;20069;-86
2022/01/06 03:32:22;;;;;;;16.17;2.50;;;3.10;99.90;;;;;;4958880;28;20050;-86
2022/01/06 03:34:48;;;;;;;11.93;1.90;;;3.00;99.90;;;;;;4971423;28;20047;-86
2022/01/06 03:37:16;;;;;;;18.43;1.87;;;3.00;99.90;;;;;;4957299;28;20069;-86
2022/01/06 03:39:46;;;;;;;10.40;1.77;;;3.00;99.90;;;;;;4964645;28;20043;-86
2022/01/06 03:42:12;;;;;;;13.70;2.08;;;3.00;99.90;;;;;;4952845;28;20109;-85
2022/01/06 03:44:38;;;;;;;8.40;1.58;;;3.00;99.90;;;;;;4969599;28;20505;-84
2022/01/06 03:47:05;;;;;;;18.77;1.75;;;2.90;99.90;;;;;;4953669;28;20039;-84
2022/01/06 03:49:30;;;;;;;8.20;1.60;;;2.90;99.90;;;;;;4980961;28;20141;-87
2022/01/06 03:51:56;;;;;;;17.13;1.83;;;2.90;99.90;;;;;;4951310;28;20110;-83
2022/01/06 03:54:26;;;;;;;14.50;2.87;;;2.90;99.90;;;;;;4951131;28;20066;-86
2022/01/06 03:56:52;;;;;;;12.45;2.15;;;2.90;99.90;;;;;;4964922;28;20097;-85
2022/01/06 03:59:18;;;;;;;14.23;2.13;;;2.90;99.90;;;;;;4966751;28;20074;-86
2022/01/06 04:01:45;;;;;;;14.77;2.45;;;2.90;99.90;;;;;;4983283;28;20106;-86
2022/01/06 04:04:13;;;;;;;13.75;2.25;;;2.90;99.90;;;;;;4945244;28;20593;-86
2022/01/06 04:06:39;;;;;;;11.50;1.52;;;2.90;99.90;;;;;;4954024;28;20512;-86
2022/01/06 04:09:06;;;;;;;10.15;2.00;;;2.90;99.90;;;;;;4948611;28;20517;-86
2022/01/06 04:11:31;;;;;;;13.48;1.95;;;2.90;99.90;;;;;;4970535;28;20059;-87
2022/01/06 04:13:58;;;;;;;8.33;1.90;;;2.90;99.90;;;;;;4950179;28;20043;-86
2022/01/06 04:16:25;;;;;;;15.90;2.28;;;2.90;99.90;;;;;;4948973;28;20026;-86
2022/01/06 04:18:50;;;;;;;14.80;2.65;;;2.90;99.90;;;;;;4949713;28;20084;-86
2022/01/06 04:21:16;;;;;;;10.00;1.73;;;2.80;99.90;;;;;;4951081;28;20054;-86
2022/01/06 04:23:47;;;;;;;13.20;2.73;;;2.80;99.90;;;;;;4949617;28;20433;-86
2022/01/06 04:26:14;;;;;;;16.67;2.20;;;2.80;99.90;;;;;;4948455;28;20413;-87
2022/01/06 04:28:40;;;;;;;14.40;2.38;;;2.70;99.90;;;;;;4951802;28;20445;-86
2022/01/06 04:31:06;;;;;;;7.55;1.90;;;2.70;99.90;;;;;;4977209;28;20138;-86
2022/01/06 04:33:33;;;;;;;13.27;1.30;;;2.70;99.90;;;;;;4949753;28;20506;-86
2022/01/06 04:35:59;;;;;;;;;;;2.70;99.90;;;;;;4968913;28;20038;-86
2022/01/06 04:38:25;;;;;;;10.63;1.92;;;2.60;99.90;;;;;;4950524;28;19918;-86
2022/01/06 04:40:50;;;;;;;7.27;1.57;;;2.60;99.90;;;;;;4947926;28;20030;-84
2022/01/06 04:43:16;;;;;;;9.73;2.70;;;2.50;99.90;;;;;;4951137;28;20189;-86
2022/01/06 04:45:42;;;;;;;14.48;1.83;;;2.50;99.90;;;;;;4965343;28;20123;-86
2022/01/06 04:48:10;;;;;;;11.97;2.30;;;2.40;99.90;;;;;;4965774;28;20043;-85
2022/01/06 04:50:38;;;;;;;20.20;1.83;;;2.40;99.90;;;;;;4966318;28;20050;-86
2022/01/06 04:53:04;;;;;;;13.70;2.80;;;2.40;99.90;;;;;;4964878;28;20050;-83
2022/01/06 04:55:30;;;;;;;15.37;1.67;;;2.40;99.90;;;;;;4964960;28;20031;-85
2022/01/06 04:57:55;;;;;;;11.53;1.50;;;2.40;99.90;;;;;;4949238;28;20477;-86
2022/01/06 05:00:21;;;;;;;9.10;1.83;;;2.30;99.90;;;;;;4946788;28;20417;-86
2022/01/06 05:02:46;;;;;;;11.37;1.50;;;2.30;99.90;;;;;;4983700;28;20041;-86
2022/01/06 05:05:13;;;;;;;7.63;1.37;;;2.30;99.90;;;;;;4965133;28;20034;-86
2022/01/06 05:07:42;;;;;;;;;;;2.20;99.90;;;;;;4953993;28;20043;-87
2022/01/06 05:10:09;;;;;;;9.07;1.48;;;2.20;99.90;;;;;;4946029;28;19932;-86
2022/01/06 05:12:39;;;;;;;18.33;2.70;;;2.10;99.90;;;;;;4950236;28;20061;-86
2022/01/06 05:15:05;;;;;;;14.68;1.75;;;2.10;99.90;;;;;;4948573;28;20262;-85
2022/01/06 05:17:31;;;;;;;13.03;1.70;;;2.00;99.90;;;;;;4947595;28;20480;-86
2022/01/06 05:19:56;;;;;;;9.70;3.43;;;2.00;99.90;;;;;;4946647;28;20246;-86
2022/01/06 05:22:23;;;;;;;10.97;2.07;;;2.00;99.90;;;;;;4950365;28;20129;-86
2022/01/06 05:24:48;;;;;;;14.90;2.00;;;2.00;99.90;;;;;;4949470;28;20081;-85
2022/01/06 05:27:14;;;;;;;9.60;1.87;;;2.00;99.90;;;;;;4949525;28;20070;-85
2022/01/06 05:29:42;;;;;;;15.13;2.70;;;2.00;99.90;;;;;;4949879;28;20181;-86
2022/01/06 05:32:11;;;;;;;9.80;2.28;;;2.00;99.90;;;;;;4951371;28;20047;-86
2022/01/06 05:34:37;;;;;;;10.10;1.55;;;2.00;99.90;;;;;;4949404;28;20232;-83
2022/01/06 05:37:03;;;;;;;19.52;2.97;;;2.00;99.90;;;;;;4970078;28;20361;-86
2022/01/06 05:39:29;;;;;;;16.27;2.08;;;2.00;99.90;;;;;;4951811;28;20035;-86
2022/01/06 05:41:54;;;;;;;19.37;2.10;;;2.00;99.90;;;;;;4952111;28;20043;-84
2022/01/06 05:44:20;;;;;;;17.47;2.33;;;2.00;99.90;;;;;;4950403;28;20141;-86
2022/01/06 05:46:47;;;;;;;9.70;1.87;;;2.00;99.90;;;;;;4947815;28;20116;-86
2022/01/06 05:52:18;;;;;;;11.13;1.92;;;2.00;99.90;;;;;;5032195;22;20073;-83
2022/01/06 05:55:01;;;;;;;15.02;2.30;;;2.00;99.90;;;;;;5006101;28;20312;-83
2022/01/06 05:57:38;;;;;;;15.27;2.45;;;2.00;99.90;;;;;;5000542;28;20120;-83
2022/01/06 06:00:04;;;;;;;;;;;1.90;99.90;;;;;;4995215;28;20030;-83
2022/01/06 06:02:30;;;;;;;17.50;2.00;;;1.90;99.90;;;;;;4994204;28;19917;-81
2022/01/06 06:04:55;;;;;;;11.73;1.47;;;1.90;99.90;;;;;;4984639;28;20393;-83
2022/01/06 06:07:21;;;;;;;14.27;2.00;;;1.80;99.90;;;;;;4984925;28;20500;-82
2022/01/06 06:09:47;;;;;;;15.67;2.93;;;1.80;99.90;;;;;;4997199;28;20060;-82
2022/01/06 06:12:15;;;;;;;14.57;2.47;;;1.80;99.90;;;;;;4981845;28;20037;-82
2022/01/06 06:14:43;;;;;;;11.48;2.03;;;1.80;99.90;;;;;;4983730;28;20092;-83
2022/01/06 06:17:09;;;;;;;13.77;2.33;;;1.80;99.90;;;;;;4981726;28;20534;-83
2022/01/06 06:19:35;;;;;;;11.27;2.70;;;1.80;99.90;;;;;;4982505;28;20069;-83
2022/01/06 06:22:00;;;;;;;15.17;2.90;;;1.80;99.90;;;;;;4985971;28;20037;-81
2022/01/06 06:24:26;;;;;;;14.67;2.30;;;1.70;99.90;;;;;;4986669;28;20034;-83
2022/01/06 06:26:52;;;;;;;12.87;2.27;;;1.70;99.90;;;;;;4987776;28;20041;-82
2022/01/06 06:29:19;;;;;;;18.15;2.72;;;1.70;99.90;;;;;;4986713;28;20180;-83
2022/01/06 06:31:45;;;;;;;10.45;2.78;;;1.80;99.90;;;;;;4986959;28;20045;-82
2022/01/06 06:34:11;;;;;;;13.80;1.73;;;1.70;99.90;;;;;;4987468;28;20048;-83
2022/01/06 06:36:39;;;;;;;13.23;2.33;;;1.70;99.90;;;;;;4988459;28;20036;-83
2022/01/06 06:39:06;;;;;;;11.27;2.67;;;1.70;99.90;;;;;;5002607;28;20101;-82
2022/01/06 06:41:32;;;;;;;12.68;1.70;;;1.70;99.90;;;;;;5001128;28;20049;-83
2022/01/06 06:43:58;;;;;;;16.08;2.72;;;1.60;99.90;;;;;;4988472;28;20476;-82
2022/01/06 06:46:23;;;;;;;13.40;2.23;;;1.70;99.90;;;;;;5002394;28;20041;-83
2022/01/06 06:48:49;;;;;;;12.20;1.97;;;1.60;99.90;;;;;;5002564;28;20470;-83
2022/01/06 06:51:15;;;;;;;7.23;2.60;;;1.60;99.90;;;;;;4987007;28;20040;-83
2022/01/06 06:53:42;;;;;;;13.77;2.00;;;1.60;99.90;;;;;;4983565;28;20824;-82
2022/01/06 06:56:08;;;;;;;13.85;2.58;;;1.60;99.90;;;;;;4986909;28;20034;-83
2022/01/06 06:58:34;;;;;;;13.43;2.80;;;1.50;99.90;;;;;;4987323;28;20522;-83
2022/01/06 07:00:59;;;;;;;13.17;2.63;;;1.50;99.90;;;;;;5004453;28;20471;-83
2022/01/06 07:03:25;;;;;;;12.07;2.63;;;1.50;99.90;;;;;;4988244;28;20040;-83
2022/01/06 07:05:51;;;;;;;14.23;2.13;;;1.50;99.90;;;;;;4985842;28;20038;-83
2022/01/06 07:08:17;;;;;;;17.37;3.10;;;1.50;99.90;;;;;;4986975;28;20045;-83
2022/01/06 07:10:42;;;;;;;17.13;2.57;;;1.40;99.90;;;;;;4986252;28;20049;-82
2022/01/06 07:13:08;;;;;;;12.70;2.13;;;1.50;99.90;;;;;;4987893;28;20042;-83
2022/01/06 07:15:37;;;;;;;13.73;3.97;;;1.40;99.90;;;;;;4984348;28;20046;-82
2022/01/06 07:18:05;;;;;;;11.55;1.92;;;1.50;99.90;;;;;;5001047;28;20104;-83
2022/01/06 07:20:33;;;;;;;14.57;3.30;;;1.60;99.90;;;;;;5001019;28;20506;-83
2022/01/06 07:22:59;;;;;;;9.75;2.25;;;1.50;99.90;;;;;;5002211;28;20663;-82
2022/01/06 07:25:24;;;;;;;13.93;2.00;;;1.40;99.90;;;;;;5002994;28;20236;-83
2022/01/06 07:27:50;;;;;;;15.00;2.13;;;1.40;99.90;;;;;;4983845;28;20125;-82
2022/01/06 07:30:16;;;;;;;13.27;2.30;;;1.50;99.90;;;;;;5000469;28;20042;-82
2022/01/06 07:32:45;;;;;;;12.30;2.90;;;1.40;99.90;;;;;;4981865;28;20035;-82
2022/01/06 07:35:11;;;;;;;14.13;3.17;;;1.50;99.90;;;;;;4983597;28;20045;-82
2022/01/06 07:37:37;;;;;;;16.42;2.25;;;1.40;99.90;;;;;;4990269;28;20041;-83
2022/01/06 07:40:06;;;;;;;18.73;2.13;;;1.40;99.90;;;;;;4985858;28;20113;-82
2022/01/06 07:42:32;;;;;;;13.18;1.75;;;1.50;99.90;;;;;;4999681;28;20540;-83
2022/01/06 07:45:00;;;;;;;7.83;1.67;;;1.50;99.90;;;;;;4984008;28;20125;-83
2022/01/06 07:47:25;;;;;;;14.70;2.53;;;1.50;99.90;;;;;;4985263;28;20038;-82
2022/01/06 07:49:51;;;;;;;10.80;2.10;;;1.50;99.90;;;;;;5002645;28;20115;-83
2022/01/06 07:52:17;;;;;;;15.37;2.57;;;1.60;99.90;;;;;;4985442;28;20037;-82
2022/01/06 07:54:43;;;;;;;18.88;3.13;;;1.60;99.90;;;;;;4984103;28;20052;-82
2022/01/06 07:57:09;;;;;;;27.90;3.13;;;1.60;99.90;;;;;;4986826;28;20033;-80
2022/01/06 07:59:35;;;;;;;9.57;2.20;;;1.60;99.90;;;;;;4987021;28;20054;-83
2022/01/06 08:02:00;;;;;;;13.90;2.93;;;1.50;99.90;;;;;;4996958;28;20137;-80
2022/01/06 08:04:26;;;;;;;22.07;2.40;;;1.60;99.90;;;;;;4997873;28;20101;-83
2022/01/06 08:06:51;;;;;;;19.17;4.07;;;1.60;99.90;;;;;;4999858;28;20127;-83
2022/01/06 08:09:17;;;;;;;12.93;2.13;;;1.60;99.90;;;;;;4979949;28;20060;-83
2022/01/06 08:11:43;;;;;;;11.43;2.37;;;1.60;99.90;;;;;;4996219;28;20053;-83
2022/01/06 08:14:08;;;;;;;18.83;2.50;;;1.60;99.90;;;;;;5001052;28;20108;-84
2022/01/06 08:16:34;;;;;;;13.30;3.37;;;1.60;99.90;;;;;;4987093;28;20214;-83
2022/01/06 08:19:00;;;;;;;16.30;1.90;;;1.50;99.90;;;;;;4987724;28;20037;-83
2022/01/06 08:21:25;;;;;;;11.17;2.93;;;1.60;99.90;;;;;;4987719;28;20038;-82
2022/01/06 08:23:51;;;;;;;10.47;2.97;;;1.60;99.90;;;;;;4984539;28;20041;-83
2022/01/06 08:26:17;;;;;;;10.67;2.20;;;1.60;99.90;;;;;;4987027;28;20630;-83
2022/01/06 08:28:46;;;;;;;14.30;2.90;;;1.60;99.90;;;;;;4985113;28;20507;-83
2022/01/06 08:31:16;;;;;;;9.15;2.88;;;1.60;99.90;;;;;;4988067;28;20097;-83
2022/01/06 08:33:42;;;;;;;16.25;2.85;;;1.70;99.90;;;;;;4984789;28;20050;-83
2022/01/06 08:36:08;;;;;;;12.18;2.85;;;1.70;99.90;;;;;;5005213;28;20044;-83
2022/01/06 08:38:34;;;;;;;14.60;3.23;;;1.70;99.90;;;;;;4987767;28;20505;-83
2022/01/06 08:40:59;;;;;;;16.13;3.17;;;1.70;99.90;;;;;;5001626;28;20072;-83
2022/01/06 08:43:27;;;;;;;17.47;4.27;;;1.80;99.90;;;;;;4999381;28;20152;-83
2022/01/06 08:45:54;;;;;;;13.38;2.90;;;1.80;99.90;;;;;;4985395;28;20044;-84
2022/01/06 08:48:20;;;;;;;20.17;2.65;;;1.90;99.90;;;;;;4982148;28;20076;-83
2022/01/06 08:50:46;;;;;;;20.23;2.90;;;1.90;99.90;;;;;;4984180;28;20092;-83
2022/01/06 08:53:12;;;;;;;11.23;2.57;;;2.00;99.90;;;;;;4997657;28;20129;-83
2022/01/06 08:55:37;;;;;;;11.13;2.80;;;2.10;99.90;;;;;;4984042;28;20046;-82
2022/01/06 08:58:03;;;;;;;13.30;3.27;;;2.10;99.90;;;;;;4983281;28;20040;-83
2022/01/06 09:00:30;;;;;;;14.20;4.73;;;2.20;99.90;;;;;;4983446;28;20496;-83
2022/01/06 09:02:56;;;;;;;18.08;3.35;;;2.20;99.90;;;;;;4984833;28;20187;-83
2022/01/06 09:05:22;;;;;;;14.80;4.45;;;2.30;99.90;;;;;;4988451;28;21456;-83
2022/01/06 09:07:48;;;;;;;15.10;2.97;;;2.30;99.90;;;;;;4985232;28;20065;-81
2022/01/06 09:10:14;;;;;;;16.03;2.20;;;2.30;99.90;;;;;;4982694;28;20038;-83
2022/01/06 09:12:39;;;;;;;10.40;2.77;;;2.30;99.90;;;;;;4980874;28;20044;-83
2022/01/06 09:15:07;;;;;;;15.77;3.63;;;2.40;99.90;;;;;;4984287;28;20046;-81
2022/01/06 09:17:36;;;;;;;7.40;1.92;;;2.40;99.90;;;;;;4998635;28;20377;-82
2022/01/06 09:20:06;;;;;;;22.42;2.90;;;2.50;99.90;;;;;;4986032;28;20033;-83
2022/01/06 09:22:32;;;;;;;14.68;3.88;;;2.50;99.90;;;;;;5005080;28;20088;-82
2022/01/06 09:24:57;;;;;;;13.57;2.20;;;2.60;99.90;;;;;;5001050;28;20057;-83
2022/01/06 09:27:23;;;;;;;11.13;3.37;;;2.50;99.90;;;;;;4984194;28;20034;-83
2022/01/06 09:29:52;;;;;;;22.02;2.70;;;2.60;99.90;;;;;;4982867;28;20038;-83
2022/01/06 09:32:20;;;;;;;15.57;2.88;;;2.60;99.90;;;;;;4983793;28;20134;-84
2022/01/06 09:34:45;;;;;;;15.93;2.47;;;2.70;99.90;;;;;;4990776;28;20030;-82
2022/01/06 09:37:14;;;;;;;12.73;3.53;;;2.70;99.90;;;;;;5007305;28;20099;-83
2022/01/06 09:39:40;;;;;;;17.85;2.75;;;2.80;99.90;;;;;;4984320;28;20046;-84
2022/01/06 09:42:06;;;;;;;18.98;4.32;;;2.90;99.90;;;;;;4984569;28;20042;-84
2022/01/06 09:44:46;;;;;;;12.60;3.10;;;2.90;99.90;;;;;;4998701;28;20048;-84
2022/01/06 09:47:12;;;;;;;20.88;3.42;;;3.00;99.90;;;;;;5000014;28;20088;-83
2022/01/06 09:49:40;;;;;;;22.37;2.67;;;3.10;99.90;;;;;;4996322;28;20569;-81
2022/01/06 09:52:06;;;;;;;12.63;2.05;;;3.20;99.90;;;;;;4982949;28;20369;-84
2022/01/06 09:54:34;;;;;;;20.45;3.92;;;3.20;99.90;;;;;;5003299;28;20042;-83
2022/01/06 09:56:59;;;;;;;14.15;2.50;;;3.30;99.90;;;;;;4998968;28;20068;-84
2022/01/06 09:59:25;;;;;;;10.30;3.33;;;3.40;99.90;;;;;;4980307;28;20129;-82
2022/01/06 10:01:51;;;;;;;10.63;2.47;;;3.40;99.90;;;;;;4982553;28;20042;-82
2022/01/06 10:04:25;;;;;;;18.88;2.15;;;3.50;99.90;;;;;;4982096;28;20128;-83
2022/01/06 10:07:08;;;;;;;21.60;2.70;;;3.60;99.90;;;;;;4983490;28;20468;-83
2022/01/06 10:09:37;;;;;;;17.67;3.00;;;3.70;99.90;;;;;;4991603;23;20415;-68
2022/01/06 10:12:08;;;;;;;21.70;3.60;;;3.70;99.90;;;;;;5005580;28;20052;-68
2022/01/06 10:14:41;;;;;;;16.40;3.55;;;3.80;99.90;;;;;;5003381;28;20037;-68
2022/01/06 10:17:08;;;;;;;12.50;2.53;;;4.00;99.90;;;;;;5012816;28;20314;-68
2022/01/06 10:19:40;;;;;;;20.10;3.22;;;4.00;99.90;;;;;;4998828;28;20038;-68
2022/01/06 10:22:15;;;;;;;18.67;3.22;;;4.10;99.90;;;;;;4999867;28;20073;-68
2022/01/06 10:24:44;;;;;;;11.95;2.38;;;4.10;99.90;;;;;;4995106;28;20502;-68
2022/01/06 10:27:10;;;;;;;12.10;2.22;;;4.20;99.90;;;;;;5003429;28;20050;-68
2022/01/06 10:30:04;;;;;;;25.13;3.20;;;4.30;99.90;;;;;;5001565;28;20141;-68
2022/01/06 10:32:32;;;;;;;12.88;3.08;;;4.40;99.90;;;;;;4998081;28;20064;-69
2022/01/06 10:35:02;;;;;;;14.23;2.58;;;4.40;99.90;;;;;;5003505;28;20128;-69
2022/01/06 10:37:34;;;;;;;19.63;3.17;;;4.50;99.90;;;;;;5001074;28;20372;-69
2022/01/06 10:40:08;;;;;;;9.93;2.33;;;4.60;99.90;;;;;;4996901;28;20042;-68
2022/01/06 10:42:36;;;;;;;15.23;2.60;;;4.70;99.90;;;;;;4999448;28;20057;-68
2022/01/06 10:45:13;;;;;;;15.43;2.67;;;4.80;99.90;;;;;;4992304;28;20047;-68
2022/01/06 10:47:45;;;;;;;13.95;3.10;;;4.90;99.90;;;;;;4996673;28;20092;-68
2022/01/06 10:50:19;;;;;;;12.55;4.00;;;4.90;99.90;;;;;;4996166;28;20053;-69
2022/01/06 10:52:56;;;;;;;9.35;2.08;;;5.10;99.90;;;;;;4999858;28;20402;-68
2022/01/06 10:55:27;;;;;;;14.07;2.20;;;5.20;99.90;;;;;;4995031;28;20042;-69
2022/01/06 10:57:59;;;;;;;14.95;2.15;;;5.20;99.90;;;;;;4993050;28;20399;-68
2022/01/06 11:00:35;;;;;;;11.57;2.53;;;5.30;99.90;;;;;;5000275;28;20104;-69
2022/01/06 11:03:11;;;;;;;16.08;1.90;;;5.40;99.90;;;;;;5005028;28;20165;-69
2022/01/06 11:05:39;;;;;;;11.48;2.10;;;5.50;99.90;;;;;;4999550;28;20125;-69
2022/01/06 11:08:05;;;;;;;9.98;1.80;;;5.60;99.90;;;;;;5007038;28;20038;-68
2022/01/06 11:10:35;;;;;;;12.82;2.40;;;5.60;99.90;;;;;;4998103;28;20072;-68
2022/01/06 11:13:01;;;;;;;8.38;1.85;;;5.70;99.90;;;;;;4991531;28;20495;-69
2022/01/06 11:15:27;;;;;;;15.80;2.67;;;5.70;99.90;;;;;;5003306;28;20041;-69
2022/01/06 11:17:53;;;;;;;18.95;2.88;;;5.80;99.90;;;;;;4999099;28;20152;-69
2022/01/06 11:20:25;;;;;;;10.87;2.00;;;5.80;99.90;;;;;;5005204;28;20037;-69
2022/01/06 11:22:53;;;;;;;21.50;2.65;;;5.90;99.90;;;;;;5004803;28;20079;-68
2022/01/06 11:25:36;;;;;;;14.52;2.70;;;5.90;99.90;;;;;;5006962;28;20042;-69
2022/01/06 11:28:09;;;;;;;12.48;3.08;;;5.90;99.90;;;;;;5004441;28;20042;-69
2022/01/06 11:30:41;;;;;;;11.80;1.83;;;5.90;99.90;;;;;;5003237;28;20174;-69
2022/01/06 11:33:07;;;;;;;10.18;1.45;;;6.00;99.90;;;;;;5004083;28;20060;-69
2022/01/06 11:35:48;;;;;;;11.45;1.60;;;6.10;99.90;;;;;;5005811;28;20038;-69
2022/01/06 11:38:15;;;;;;;12.65;1.75;;;6.10;99.90;;;;;;4995664;28;20042;-68
2022/01/06 11:40:42;;;;;;;12.77;2.63;;;6.20;99.90;;;;;;5003296;28;20159;-69
2022/01/06 11:43:08;;;;;;;8.25;1.50;;;6.30;99.90;;;;;;4998541;28;20042;-69
2022/01/06 11:45:34;;;;;;;13.17;1.47;;;6.30;99.90;;;;;;5004955;28;20057;-69
2022/01/06 11:48:14;;;;;;;6.90;2.40;;;6.30;99.90;;;;;;4991691;28;20056;-69
2022/01/06 11:50:46;;;;;;;6.97;2.40;;;6.40;99.90;;;;;;5083999;23;20577;-68
2022/01/06 11:53:12;;;;;;;7.68;1.25;;;6.40;99.90;;;;;;4993893;28;20062;-69
2022/01/06 11:55:41;;;;;;;8.93;1.48;;;6.40;99.90;;;;;;5004245;28;20053;-69
2022/01/06 11:58:19;;;;;;;9.32;1.98;;;6.50;99.90;;;;;;4999532;28;20067;-69
2022/01/06 12:00:53;;;;;;;9.93;1.63;;;6.40;99.90;;;;;;5001982;28;20038;-69
2022/01/06 12:03:20;;;;;;;8.40;1.52;;;6.30;99.90;;;;;;4998182;28;20128;-69
2022/01/06 12:05:52;;;;;;;14.52;1.77;;;6.20;99.90;;;;;;4996989;28;20068;-68
2022/01/06 12:08:20;;;;;;;7.65;2.15;;;6.10;99.90;;;;;;5000280;28;20058;-69
2022/01/06 12:10:48;;;;;;;11.65;2.00;;;6.10;99.90;;;;;;4999712;28;20097;-68
2022/01/06 12:13:14;;;;;;;14.48;2.20;;;6.10;99.90;;;;;;5000126;28;20103;-69
2022/01/06 12:15:51;;;;;;;6.57;1.52;;;6.00;99.90;;;;;;4999188;28;20038;-69
2022/01/06 12:18:23;;;;;;;6.97;1.90;;;6.00;99.90;;;;;;5001215;28;20038;-69
2022/01/06 12:20:50;;;;;;;7.35;1.95;;;5.90;99.90;;;;;;5000963;28;20572;-69
2022/01/06 12:23:17;;;;;;;11.52;1.50;;;6.00;99.90;;;;;;5001434;28;20030;-69
2022/01/06 12:25:47;;;;;;;;;;;5.90;99.90;;;;;;4999625;28;20095;-69
2022/01/06 12:28:13;;;;;;;10.10;2.05;;;5.90;99.90;;;;;;4984202;28;20305;-68
2022/01/06 12:30:39;;;;;;;14.90;1.97;;;6.00;99.90;;;;;;5002329;28;20045;-69
2022/01/06 12:33:07;;;;;;;9.70;1.33;;;6.10;99.90;;;;;;5000805;28;20176;-69
2022/01/06 12:35:39;;;;;;;6.82;1.65;;;6.20;99.90;;;;;;5000232;28;20048;-69
2022/01/06 12:38:04;;;;;;;13.00;1.90;;;6.40;99.90;;;;;;5002537;28;21645;-69
2022/01/06 12:40:35;;;;;;;8.60;1.27;;;6.50;99.90;;;;;;4996470;28;20124;-69
2022/01/06 12:43:16;;;;;;;13.05;2.05;;;6.60;99.90;;;;;;4996069;28;20494;-69
2022/01/06 12:45:43;;;;;;;10.07;1.33;;;6.70;99.90;;;;;;4990968;28;20053;-69
2022/01/06 12:48:09;;;;;;;14.90;1.52;;;6.70;99.90;;;;;;5002802;28;20347;-69
2022/01/06 12:50:47;;;;;;;6.57;1.30;;;6.80;99.90;;;;;;5000590;28;20280;-69
2022/01/06 12:53:28;;;;;;;10.93;1.50;;;6.90;99.90;;;;;;5001268;28;20042;-69
2022/01/06 12:55:55;;;;;;;12.20;1.23;;;6.90;99.90;;;;;;5003544;28;20093;-69
2022/01/06 12:58:28;;;;;;;8.25;1.50;;;6.90;99.90;;;;;;5001282;28;20087;-69
2022/01/06 13:00:56;;;;;;;12.07;1.50;;;6.90;99.90;;;;;;4998269;28;20037;-69
2022/01/06 13:03:33;;;;;;;17.35;2.20;;;6.90;99.90;;;;;;4999114;28;20687;-69
2022/01/06 13:06:01;;;;;;;4.97;1.10;;;7.00;99.90;;;;;;4998074;28;20042;-69
2022/01/06 13:08:28;;;;;;;10.38;1.05;;;6.90;99.90;;;;;;4998599;28;20077;-69